createdAt,value
2017-07-05T00:00:59.169Z,11.95
2017-07-05T00:01:59.818Z,11.82
2017-07-05T00:02:59.820Z,11.84
2017-07-05T00:03:59.827Z,11.86
2017-07-05T00:04:59.819Z,11.85
2017-07-05T00:05:59.130Z,11.89
2017-07-05T00:06:59.460Z,11.86
2017-07-05T00:07:59.447Z,11.85
2017-07-05T00:08:59.434Z,11.75
2017-07-05T00:09:59.464Z,11.81
2017-07-05T00:10:59.767Z,11.85
2017-07-05T00:11:59.092Z,11.78
2017-07-05T00:12:59.427Z,11.7
2017-07-05T00:13:59.078Z,11.79
2017-07-05T00:14:59.078Z,11.67
2017-07-05T00:15:59.064Z,11.66
2017-07-05T00:16:59.730Z,11.68
2017-07-05T00:17:59.470Z,11.75
2017-07-05T00:18:59.069Z,11.66
2017-07-05T00:19:59.376Z,11.67
2017-07-05T00:20:59.036Z,11.64
2017-07-05T00:21:59.366Z,11.6
2017-07-05T00:22:59.690Z,11.64
2017-07-05T00:23:59.339Z,11.68
2017-07-05T00:24:59.343Z,11.67
2017-07-05T00:25:59.325Z,11.56
2017-07-05T00:26:59.319Z,11.56
2017-07-05T00:27:59.312Z,11.57
2017-07-05T00:28:58.975Z,11.56
2017-07-05T00:29:58.971Z,11.51
2017-07-05T00:30:59.303Z,11.56
2017-07-05T00:31:59.284Z,11.59
2017-07-05T00:32:59.285Z,11.57
2017-07-05T00:33:59.292Z,11.56
2017-07-05T00:34:59.263Z,11.61
2017-07-05T00:35:59.260Z,11.63
2017-07-05T00:36:59.582Z,11.53
2017-07-05T00:37:59.578Z,11.6
2017-07-05T00:38:59.232Z,11.6
2017-07-05T00:39:59.228Z,11.57
2017-07-05T00:40:59.473Z,11.56
2017-07-05T00:41:58.891Z,11.43
2017-07-05T00:42:59.215Z,11.49
2017-07-05T00:43:58.869Z,11.57
2017-07-05T00:44:59.200Z,11.41
2017-07-05T00:45:59.510Z,11.49
2017-07-05T00:46:58.862Z,11.49
2017-07-05T00:47:58.843Z,11.45
2017-07-05T00:48:59.166Z,11.41
2017-07-05T00:49:58.826Z,11.49
2017-07-05T00:50:59.148Z,11.45
2017-07-05T00:51:59.153Z,11.41
2017-07-05T00:52:59.481Z,11.39
2017-07-05T00:53:58.823Z,11.48
2017-07-05T00:54:59.121Z,11.43
2017-07-05T00:55:59.140Z,11.42
2017-07-05T00:56:58.778Z,11.41
2017-07-05T00:57:59.433Z,11.42
2017-07-05T00:58:59.094Z,11.52
2017-07-05T00:59:59.108Z,11.49
2017-07-05T01:00:59.081Z,11.43
2017-07-05T01:01:58.744Z,11.42
2017-07-05T01:02:59.065Z,11.43
2017-07-05T01:03:59.070Z,11.46
2017-07-05T01:04:59.056Z,11.46
2017-07-05T01:05:59.045Z,11.46
2017-07-05T01:06:58.709Z,11.52
2017-07-05T01:07:58.712Z,11.43
2017-07-05T01:08:59.056Z,11.49
2017-07-05T01:09:59.026Z,11.41
2017-07-05T01:10:58.680Z,11.43
2017-07-05T01:11:58.676Z,11.46
2017-07-05T01:12:58.676Z,11.34
2017-07-05T01:13:58.679Z,11.45
2017-07-05T01:14:58.648Z,11.43
2017-07-05T01:15:58.649Z,11.45
2017-07-05T01:16:58.638Z,11.33
2017-07-05T01:17:58.636Z,11.33
2017-07-05T01:18:58.953Z,11.34
2017-07-05T01:19:58.615Z,11.28
2017-07-05T01:20:58.945Z,11.34
2017-07-05T01:21:59.290Z,11.28
2017-07-05T01:22:58.593Z,11.31
2017-07-05T01:23:58.603Z,11.3
2017-07-05T01:24:58.964Z,11.31
2017-07-05T01:25:58.898Z,11.3
2017-07-05T01:26:58.903Z,11.26
2017-07-05T01:27:58.566Z,11.31
2017-07-05T01:28:58.899Z,11.21
2017-07-05T01:29:58.543Z,11.23
2017-07-05T01:30:58.880Z,11.26
2017-07-05T01:31:58.527Z,11.27
2017-07-05T01:32:59.205Z,11.3
2017-07-05T01:33:58.513Z,11.28
2017-07-05T01:34:58.841Z,11.31
2017-07-05T01:35:58.515Z,11.33
2017-07-05T01:36:58.504Z,11.38
2017-07-05T01:37:59.139Z,11.46
2017-07-05T01:38:59.140Z,11.46
2017-07-05T01:39:58.822Z,11.46
2017-07-05T01:40:58.469Z,11.42
2017-07-05T01:41:58.783Z,11.39
2017-07-05T01:42:58.447Z,11.42
2017-07-05T01:43:58.453Z,11.45
2017-07-05T01:44:59.093Z,11.43
2017-07-05T01:45:58.778Z,11.51
2017-07-05T01:46:58.420Z,11.46
2017-07-05T01:47:58.411Z,11.49
2017-07-05T01:48:58.420Z,11.48
2017-07-05T01:49:58.399Z,11.48
2017-07-05T01:50:58.409Z,11.53
2017-07-05T01:51:58.713Z,11.51
2017-07-05T01:52:58.396Z,11.48
2017-07-05T01:53:58.718Z,11.51
2017-07-05T01:54:58.698Z,11.53
2017-07-05T01:55:58.353Z,11.51
2017-07-05T01:56:58.360Z,11.56
2017-07-05T01:57:58.675Z,11.48
2017-07-05T01:58:58.660Z,11.53
2017-07-05T01:59:58.667Z,11.52
2017-07-05T02:00:58.665Z,11.52
2017-07-05T02:01:58.665Z,11.52
2017-07-05T02:02:58.631Z,11.56
2017-07-05T02:03:58.954Z,11.56
2017-07-05T02:04:58.290Z,11.59
2017-07-05T02:05:58.333Z,11.52
2017-07-05T02:06:58.641Z,11.6
2017-07-05T02:07:58.286Z,11.6
2017-07-05T02:08:58.589Z,11.63
2017-07-05T02:09:58.251Z,11.64
2017-07-05T02:10:58.601Z,11.63
2017-07-05T02:11:58.255Z,11.68
2017-07-05T02:12:58.232Z,11.64
2017-07-05T02:13:58.222Z,11.64
2017-07-05T02:14:58.547Z,11.63
2017-07-05T02:15:58.884Z,11.66
2017-07-05T02:16:58.557Z,11.64
2017-07-05T02:17:58.852Z,11.67
2017-07-05T02:18:58.187Z,11.66
2017-07-05T02:19:58.193Z,11.66
2017-07-05T02:20:58.377Z,11.64
2017-07-05T02:21:58.171Z,11.67
2017-07-05T02:22:58.484Z,11.75
2017-07-05T02:23:58.480Z,11.78
2017-07-05T02:24:58.505Z,11.79
2017-07-05T02:25:58.493Z,11.84
2017-07-05T02:26:58.459Z,11.85
2017-07-05T02:27:58.144Z,11.78
2017-07-05T02:28:58.778Z,11.75
2017-07-05T02:29:58.119Z,11.91
2017-07-05T02:30:58.115Z,11.94
2017-07-05T02:31:58.423Z,11.97
2017-07-05T02:32:58.136Z,11.98
2017-07-05T02:33:58.099Z,12.01
2017-07-05T02:34:58.399Z,12.04
2017-07-05T02:35:58.394Z,12.08
2017-07-05T02:36:58.400Z,12.03
2017-07-05T02:37:58.383Z,12.05
2017-07-05T02:38:58.079Z,12.1
2017-07-05T02:39:58.374Z,12.11
2017-07-05T02:40:58.358Z,12.03
2017-07-05T02:41:58.727Z,12.1
2017-07-05T02:42:58.342Z,12.08
2017-07-05T02:43:58.347Z,12.16
2017-07-05T02:44:58.006Z,12.11
2017-07-05T02:45:58.044Z,12.13
2017-07-05T02:46:58.315Z,12.19
2017-07-05T02:47:58.321Z,12.16
2017-07-05T02:48:58.648Z,12.13
2017-07-05T02:49:57.975Z,12.15
2017-07-05T02:50:57.961Z,12.08
2017-07-05T02:51:58.289Z,12.08
2017-07-05T02:52:58.316Z,12.1
2017-07-05T02:53:58.610Z,12.18
2017-07-05T02:54:57.964Z,12.05
2017-07-05T02:55:58.254Z,12.11
2017-07-05T02:56:58.248Z,12.05
2017-07-05T02:57:58.241Z,12.05
2017-07-05T02:58:58.235Z,12.2
2017-07-05T02:59:58.230Z,12.04
2017-07-05T03:00:58.237Z,12.15
2017-07-05T03:01:57.883Z,12.23
2017-07-05T03:02:58.204Z,12.13
2017-07-05T03:03:58.199Z,12.16
2017-07-05T03:04:58.229Z,12.13
2017-07-05T03:05:57.858Z,12.23
2017-07-05T03:06:58.546Z,12.19
2017-07-05T03:07:57.842Z,12.22
2017-07-05T03:08:57.837Z,12.36
2017-07-05T03:09:57.849Z,12.29
2017-07-05T03:10:57.825Z,12.33
2017-07-05T03:11:58.472Z,12.29
2017-07-05T03:12:58.165Z,12.34
2017-07-05T03:13:57.802Z,12.38
2017-07-05T03:14:58.143Z,12.4
2017-07-05T03:15:58.129Z,12.45
2017-07-05T03:16:58.130Z,12.44
2017-07-05T03:17:57.805Z,12.53
2017-07-05T03:18:57.768Z,12.56
2017-07-05T03:19:57.760Z,12.53
2017-07-05T03:20:58.085Z,12.51
2017-07-05T03:21:58.127Z,12.59
2017-07-05T03:22:57.757Z,12.62
2017-07-05T03:23:58.062Z,12.51
2017-07-05T03:24:58.062Z,12.63
2017-07-05T03:25:58.416Z,12.61
2017-07-05T03:26:57.718Z,12.62
2017-07-05T03:27:58.042Z,12.69
2017-07-05T03:28:57.722Z,12.71
2017-07-05T03:29:58.044Z,12.74
2017-07-05T03:30:57.704Z,12.74
2017-07-05T03:31:58.349Z,12.78
2017-07-05T03:32:57.679Z,12.8
2017-07-05T03:33:57.689Z,12.8
2017-07-05T03:34:57.664Z,12.88
2017-07-05T03:35:58.003Z,12.88
2017-07-05T03:36:57.985Z,12.89
2017-07-05T03:37:57.648Z,12.94
2017-07-05T03:38:58.007Z,12.96
2017-07-05T03:39:57.960Z,13.01
2017-07-05T03:40:57.628Z,13.09
2017-07-05T03:41:57.625Z,13.1
2017-07-05T03:42:57.947Z,13.1
2017-07-05T03:43:57.609Z,13.11
2017-07-05T03:44:57.613Z,13.2
2017-07-05T03:45:57.927Z,13.17
2017-07-05T03:46:57.604Z,13.2
2017-07-05T03:47:57.601Z,13.27
2017-07-05T03:48:57.577Z,13.17
2017-07-05T03:49:57.586Z,13.27
2017-07-05T03:50:57.581Z,13.28
2017-07-05T03:51:57.889Z,13.39
2017-07-05T03:52:57.907Z,13.4
2017-07-05T03:53:57.901Z,13.47
2017-07-05T03:54:57.871Z,13.5
2017-07-05T03:55:57.880Z,13.44
2017-07-05T03:56:57.855Z,13.45
2017-07-05T03:57:57.524Z,13.51
2017-07-05T03:58:57.514Z,13.53
2017-07-05T03:59:57.507Z,13.6
2017-07-05T04:00:57.508Z,13.55
2017-07-05T04:01:57.828Z,13.63
2017-07-05T04:02:58.176Z,13.58
2017-07-05T04:03:57.493Z,13.68
2017-07-05T04:04:57.503Z,13.72
2017-07-05T04:05:58.131Z,13.79
2017-07-05T04:06:57.797Z,13.73
2017-07-05T04:07:57.491Z,13.84
2017-07-05T04:08:57.802Z,13.81
2017-07-05T04:09:57.800Z,13.84
2017-07-05T04:10:57.774Z,13.84
2017-07-05T04:11:57.443Z,13.84
2017-07-05T04:12:57.822Z,13.9
2017-07-05T04:13:58.076Z,13.88
2017-07-05T04:14:57.751Z,13.9
2017-07-05T04:15:57.416Z,13.91
2017-07-05T04:16:57.744Z,13.94
2017-07-05T04:17:57.402Z,13.99
2017-07-05T04:18:57.727Z,13.99
2017-07-05T04:19:57.397Z,14.06
2017-07-05T04:20:57.711Z,14.03
2017-07-05T04:21:57.705Z,14.02
2017-07-05T04:22:57.377Z,14.08
2017-07-05T04:23:57.374Z,14.12
2017-07-05T04:24:57.696Z,14.08
2017-07-05T04:25:57.398Z,14.15
2017-07-05T04:26:57.353Z,14.12
2017-07-05T04:27:58.017Z,14.27
2017-07-05T04:28:57.721Z,14.26
2017-07-05T04:29:57.336Z,14.28
2017-07-05T04:30:57.352Z,14.41
2017-07-05T04:31:57.652Z,14.38
2017-07-05T04:32:57.335Z,14.44
2017-07-05T04:33:57.335Z,14.41
2017-07-05T04:34:57.645Z,14.44
2017-07-05T04:35:57.633Z,14.51
2017-07-05T04:36:57.650Z,14.49
2017-07-05T04:37:57.622Z,14.52
2017-07-05T04:38:57.629Z,14.45
2017-07-05T04:39:57.635Z,14.44
2017-07-05T04:40:57.615Z,14.51
2017-07-05T04:41:57.604Z,14.64
2017-07-05T04:42:57.614Z,14.69
2017-07-05T04:43:57.299Z,14.71
2017-07-05T04:44:57.586Z,14.79
2017-07-05T04:45:57.583Z,14.75
2017-07-05T04:46:57.577Z,14.74
2017-07-05T04:47:57.571Z,14.83
2017-07-05T04:48:57.588Z,14.85
2017-07-05T04:49:57.569Z,14.8
2017-07-05T04:50:57.229Z,14.93
2017-07-05T04:51:57.577Z,14.87
2017-07-05T04:52:57.564Z,14.9
2017-07-05T04:53:57.212Z,15.02
2017-07-05T04:54:57.560Z,14.98
2017-07-05T04:55:57.225Z,15
2017-07-05T04:56:57.223Z,15.07
2017-07-05T04:57:57.196Z,15.02
2017-07-05T04:58:57.189Z,15.13
2017-07-05T04:59:57.185Z,15.08
2017-07-05T05:00:57.193Z,15.2
2017-07-05T05:01:57.199Z,15.25
2017-07-05T05:02:57.502Z,15.27
2017-07-05T05:03:57.168Z,15.27
2017-07-05T05:04:57.181Z,15.33
2017-07-05T05:05:57.486Z,15.31
2017-07-05T05:06:57.542Z,15.44
2017-07-05T05:07:57.171Z,15.44
2017-07-05T05:08:57.484Z,15.44
2017-07-05T05:09:57.473Z,15.52
2017-07-05T05:10:57.478Z,15.45
2017-07-05T05:11:57.484Z,15.65
2017-07-05T05:12:57.793Z,15.55
2017-07-05T05:13:57.452Z,15.67
2017-07-05T05:14:57.460Z,15.74
2017-07-05T05:15:57.441Z,15.74
2017-07-05T05:16:57.440Z,15.83
2017-07-05T05:17:57.105Z,15.86
2017-07-05T05:18:57.104Z,15.84
2017-07-05T05:19:57.096Z,15.93
2017-07-05T05:20:57.449Z,15.95
2017-07-05T05:21:57.094Z,16.06
2017-07-05T05:22:57.088Z,16.17
2017-07-05T05:23:57.081Z,16.18
2017-07-05T05:24:57.413Z,16.18
2017-07-05T05:25:57.748Z,16.27
2017-07-05T05:26:57.076Z,16.16
2017-07-05T05:27:57.067Z,16.27
2017-07-05T05:28:57.390Z,16.27
2017-07-05T05:29:57.407Z,16.29
2017-07-05T05:30:57.065Z,16.39
2017-07-05T05:31:57.401Z,16.4
2017-07-05T05:32:57.377Z,16.4
2017-07-05T05:33:57.042Z,16.4
2017-07-05T05:34:57.366Z,16.45
2017-07-05T05:35:57.047Z,16.51
2017-07-05T05:36:57.686Z,16.48
2017-07-05T05:37:57.428Z,16.55
2017-07-05T05:38:57.356Z,16.65
2017-07-05T05:39:57.352Z,16.72
2017-07-05T05:40:57.347Z,16.81
2017-07-05T05:41:57.402Z,16.9
2017-07-05T05:42:57.025Z,16.94
2017-07-05T05:43:57.007Z,17.03
2017-07-05T05:44:57.005Z,17.02
2017-07-05T05:45:57.013Z,17.1
2017-07-05T05:46:57.334Z,17
2017-07-05T05:47:56.995Z,17.06
2017-07-05T05:48:57.344Z,17.03
2017-07-05T05:49:56.991Z,17.1
2017-07-05T05:50:56.988Z,17.06
2017-07-05T05:51:56.983Z,17.15
2017-07-05T05:52:57.335Z,17.17
2017-07-05T05:53:57.304Z,17.22
2017-07-05T05:54:57.304Z,17.24
2017-07-05T05:55:57.328Z,17.25
2017-07-05T05:56:56.970Z,17.35
2017-07-05T05:57:56.965Z,17.25
2017-07-05T05:58:57.287Z,17.4
2017-07-05T05:59:57.618Z,17.32
2017-07-05T06:00:57.294Z,17.35
2017-07-05T06:01:57.011Z,17.49
2017-07-05T06:02:57.677Z,17.57
2017-07-05T06:03:57.328Z,17.5
2017-07-05T06:04:57.294Z,17.5
2017-07-05T06:05:57.652Z,17.52
2017-07-05T06:06:56.940Z,17.63
2017-07-05T06:07:56.938Z,17.79
2017-07-05T06:08:56.934Z,17.86
2017-07-05T06:09:57.316Z,17.83
2017-07-05T06:10:56.939Z,17.88
2017-07-05T06:11:57.273Z,18.08
2017-07-05T06:12:57.253Z,18.17
2017-07-05T06:13:56.923Z,18.23
2017-07-05T06:14:57.251Z,18.36
2017-07-05T06:15:57.247Z,18.36
2017-07-05T06:16:56.942Z,18.51
2017-07-05T06:17:57.240Z,18.68
2017-07-05T06:18:57.244Z,18.68
2017-07-05T06:19:56.909Z,18.84
2017-07-05T06:20:56.924Z,18.94
2017-07-05T06:21:56.904Z,18.94
2017-07-05T06:22:56.943Z,19.12
2017-07-05T06:23:56.902Z,19.2
2017-07-05T06:24:57.256Z,19.25
2017-07-05T06:25:57.224Z,19.31
2017-07-05T06:26:56.895Z,19.32
2017-07-05T06:27:57.221Z,19.34
2017-07-05T06:28:57.561Z,19.31
2017-07-05T06:29:56.913Z,19.24
2017-07-05T06:30:57.215Z,19.25
2017-07-05T06:31:57.216Z,19.31
2017-07-05T06:32:57.217Z,19.34
2017-07-05T06:33:57.552Z,19.31
2017-07-05T06:34:56.883Z,19.24
2017-07-05T06:35:57.210Z,19.37
2017-07-05T06:36:57.213Z,19.31
2017-07-05T06:37:57.207Z,19.32
2017-07-05T06:38:57.206Z,19.34
2017-07-05T06:39:56.874Z,19.4
2017-07-05T06:40:56.877Z,19.43
2017-07-05T06:41:56.874Z,19.49
2017-07-05T06:42:57.528Z,19.64
2017-07-05T06:43:57.205Z,19.83
2017-07-05T06:44:56.869Z,20.15
2017-07-05T06:45:56.873Z,20.68
2017-07-05T06:46:56.932Z,21.34
2017-07-05T06:47:56.878Z,22.26
2017-07-05T06:48:56.869Z,23.15
2017-07-05T06:49:57.198Z,24.14
2017-07-05T06:50:57.202Z,24.94
2017-07-05T06:51:56.871Z,25.56
2017-07-05T06:52:57.205Z,26.32
2017-07-05T06:53:57.203Z,26.84
2017-07-05T06:54:57.260Z,27.27
2017-07-05T06:55:56.877Z,27.65
2017-07-05T06:56:57.206Z,28.06
2017-07-05T06:57:57.207Z,28.17
2017-07-05T06:58:56.885Z,28.26
2017-07-05T06:59:56.887Z,28.43
2017-07-05T07:00:57.221Z,28.61
2017-07-05T07:01:57.223Z,29.02
2017-07-05T07:02:57.237Z,29.3
2017-07-05T07:03:56.918Z,29.32
2017-07-05T07:04:57.234Z,29.57
2017-07-05T07:05:57.574Z,29.91
2017-07-05T07:06:56.935Z,30.16
2017-07-05T07:07:57.245Z,30.56
2017-07-05T07:08:57.254Z,30.85
2017-07-05T07:09:57.261Z,31.01
2017-07-05T07:10:57.264Z,31.18
2017-07-05T07:11:56.942Z,31.43
2017-07-05T07:12:57.275Z,31.58
2017-07-05T07:13:57.280Z,31.77
2017-07-05T07:14:56.958Z,31.91
2017-07-05T07:15:56.987Z,31.94
2017-07-05T07:16:56.996Z,31.75
2017-07-05T07:17:57.313Z,31.52
2017-07-05T07:18:56.988Z,31.41
2017-07-05T07:19:57.010Z,31.63
2017-07-05T07:20:57.653Z,31.6
2017-07-05T07:21:57.328Z,31.9
2017-07-05T07:22:57.023Z,31.91
2017-07-05T07:23:57.022Z,32.16
2017-07-05T07:24:57.353Z,32.27
2017-07-05T07:25:57.054Z,32.38
2017-07-05T07:26:57.042Z,32.17
2017-07-05T07:27:57.706Z,32.25
2017-07-05T07:28:57.389Z,32.47
2017-07-05T07:29:57.743Z,32.69
2017-07-05T07:30:57.073Z,32.81
2017-07-05T07:31:57.083Z,32.83
2017-07-05T07:32:57.421Z,32.83
2017-07-05T07:33:57.154Z,32.91
2017-07-05T07:34:57.154Z,32.91
2017-07-05T07:35:57.135Z,32.81
2017-07-05T07:36:57.775Z,32.79
2017-07-05T07:37:57.468Z,32.83
2017-07-05T07:38:57.475Z,32.69
2017-07-05T07:39:57.812Z,32.8
2017-07-05T07:40:57.162Z,32.98
2017-07-05T07:41:57.171Z,32.86
2017-07-05T07:42:57.512Z,32.76
2017-07-05T07:43:57.877Z,32.74
2017-07-05T07:44:57.557Z,32.32
2017-07-05T07:45:57.883Z,32
2017-07-05T07:46:57.215Z,31.8
2017-07-05T07:47:57.227Z,31.82
2017-07-05T07:48:57.233Z,31.87
2017-07-05T07:49:57.259Z,31.82
2017-07-05T07:50:57.595Z,32.08
2017-07-05T07:51:57.261Z,32.15
2017-07-05T07:52:57.268Z,32.2
2017-07-05T07:53:57.933Z,32.24
2017-07-05T07:54:57.286Z,32.35
2017-07-05T07:55:57.298Z,32.39
2017-07-05T07:56:57.633Z,32.65
2017-07-05T07:57:57.647Z,32.79
2017-07-05T07:58:57.323Z,33.06
2017-07-05T07:59:57.665Z,33.48
2017-07-05T08:00:57.340Z,33.63
2017-07-05T08:01:57.350Z,33.63
2017-07-05T08:02:57.692Z,33.32
2017-07-05T08:03:57.695Z,33.18
2017-07-05T08:04:57.706Z,32.9
2017-07-05T08:05:57.386Z,32.65
2017-07-05T08:06:57.399Z,32.53
2017-07-05T08:07:57.406Z,32.47
2017-07-05T08:08:57.414Z,32.54
2017-07-05T08:09:57.421Z,32.67
2017-07-05T08:10:57.430Z,32.71
2017-07-05T08:11:57.440Z,32.89
2017-07-05T08:12:57.778Z,33.2
2017-07-05T08:13:57.785Z,33.41
2017-07-05T08:14:57.464Z,33.52
2017-07-05T08:15:57.802Z,33.39
2017-07-05T08:16:57.478Z,33.18
2017-07-05T08:17:57.487Z,32.89
2017-07-05T08:18:57.494Z,32.81
2017-07-05T08:19:57.518Z,32.65
2017-07-05T08:20:57.839Z,32.49
2017-07-05T08:21:57.862Z,32.2
2017-07-05T08:22:57.852Z,31.9
2017-07-05T08:23:57.539Z,31.47
2017-07-05T08:24:57.545Z,30.93
2017-07-05T08:25:57.544Z,30.37
2017-07-05T08:26:58.213Z,29.84
2017-07-05T08:27:57.558Z,29.48
2017-07-05T08:28:57.894Z,29.06
2017-07-05T08:29:57.909Z,28.73
2017-07-05T08:30:57.947Z,28.36
2017-07-05T08:31:57.581Z,28.06
2017-07-05T08:32:58.248Z,27.75
2017-07-05T08:33:57.932Z,27.57
2017-07-05T08:34:57.610Z,27.34
2017-07-05T08:35:57.679Z,27.13
2017-07-05T08:36:57.967Z,26.97
2017-07-05T08:37:57.945Z,26.84
2017-07-05T08:38:57.631Z,26.64
2017-07-05T08:39:57.637Z,26.5
2017-07-05T08:40:57.629Z,26.59
2017-07-05T08:41:57.967Z,26.79
2017-07-05T08:42:57.643Z,26.89
2017-07-05T08:43:57.645Z,27.01
2017-07-05T08:44:57.978Z,26.94
2017-07-05T08:45:57.985Z,26.87
2017-07-05T08:46:57.993Z,26.49
2017-07-05T08:47:57.995Z,26.26
2017-07-05T08:48:58.005Z,26.09
2017-07-05T08:49:58.005Z,25.96
2017-07-05T08:50:57.701Z,25.78
2017-07-05T08:51:58.012Z,25.79
2017-07-05T08:52:57.690Z,25.78
2017-07-05T08:53:57.696Z,25.78
2017-07-05T08:54:58.032Z,25.86
2017-07-05T08:55:58.361Z,26.07
2017-07-05T08:56:57.707Z,26.26
2017-07-05T08:57:58.039Z,26.41
2017-07-05T08:58:57.717Z,26.74
2017-07-05T08:59:58.049Z,26.79
2017-07-05T09:00:58.070Z,26.86
2017-07-05T09:01:58.383Z,26.82
2017-07-05T09:02:58.063Z,26.87
2017-07-05T09:03:57.763Z,26.9
2017-07-05T09:04:58.092Z,26.86
2017-07-05T09:05:58.103Z,27
2017-07-05T09:06:57.752Z,26.81
2017-07-05T09:07:58.457Z,26.6
2017-07-05T09:08:57.798Z,26.54
2017-07-05T09:09:57.766Z,26.42
2017-07-05T09:10:58.102Z,26.49
2017-07-05T09:11:57.778Z,26.61
2017-07-05T09:12:57.778Z,26.67
2017-07-05T09:13:57.782Z,26.67
2017-07-05T09:14:58.133Z,26.79
2017-07-05T09:15:58.169Z,26.75
2017-07-05T09:16:58.131Z,26.71
2017-07-05T09:17:58.129Z,26.42
2017-07-05T09:18:58.129Z,26.15
2017-07-05T09:19:58.135Z,25.84
2017-07-05T09:20:58.140Z,25.63
2017-07-05T09:21:58.162Z,25.59
2017-07-05T09:22:57.823Z,25.49
2017-07-05T09:23:58.172Z,25.24
2017-07-05T09:24:57.835Z,25.22
2017-07-05T09:25:57.832Z,25.02
2017-07-05T09:26:57.847Z,24.96
2017-07-05T09:27:57.855Z,24.69
2017-07-05T09:28:57.859Z,24.71
2017-07-05T09:29:57.849Z,24.92
2017-07-05T09:30:58.182Z,25.05
2017-07-05T09:31:57.855Z,25.07
2017-07-05T09:32:58.201Z,25.11
2017-07-05T09:33:57.860Z,25.22
2017-07-05T09:34:58.194Z,25.47
2017-07-05T09:35:57.869Z,25.6
2017-07-05T09:36:57.871Z,25.82
2017-07-05T09:37:58.203Z,25.78
2017-07-05T09:38:58.210Z,25.86
2017-07-05T09:39:57.881Z,25.93
2017-07-05T09:40:58.214Z,26.01
2017-07-05T09:41:57.889Z,26.32
2017-07-05T09:42:57.891Z,26.47
2017-07-05T09:43:57.895Z,26.72
2017-07-05T09:44:57.900Z,26.81
2017-07-05T09:45:58.240Z,26.89
2017-07-05T09:46:58.235Z,26.79
2017-07-05T09:47:57.915Z,26.89
2017-07-05T09:48:58.591Z,26.91
2017-07-05T09:49:58.581Z,27.09
2017-07-05T09:50:58.261Z,27.16
2017-07-05T09:51:57.928Z,27.04
2017-07-05T09:52:58.262Z,27.04
2017-07-05T09:53:58.264Z,26.97
2017-07-05T09:54:57.952Z,27
2017-07-05T09:55:57.967Z,26.94
2017-07-05T09:56:58.309Z,26.94
2017-07-05T09:57:57.961Z,26.79
2017-07-05T09:58:58.613Z,26.82
2017-07-05T09:59:57.960Z,26.84
2017-07-05T10:00:57.965Z,26.79
2017-07-05T10:01:58.317Z,26.84
2017-07-05T10:02:58.311Z,26.84
2017-07-05T10:03:58.305Z,26.94
2017-07-05T10:04:58.306Z,26.89
2017-07-05T10:05:58.313Z,26.9
2017-07-05T10:06:58.323Z,26.91
2017-07-05T10:07:57.992Z,26.82
2017-07-05T10:08:58.002Z,26.69
2017-07-05T10:09:58.332Z,26.75
2017-07-05T10:10:58.338Z,26.52
2017-07-05T10:11:58.339Z,26.31
2017-07-05T10:12:58.024Z,26.12
2017-07-05T10:13:58.017Z,25.78
2017-07-05T10:14:58.030Z,25.64
2017-07-05T10:15:58.026Z,25.63
2017-07-05T10:16:58.367Z,25.78
2017-07-05T10:17:58.376Z,25.82
2017-07-05T10:18:58.039Z,25.91
2017-07-05T10:19:58.040Z,25.81
2017-07-05T10:20:58.372Z,25.69
2017-07-05T10:21:58.385Z,25.52
2017-07-05T10:22:58.051Z,25.7
2017-07-05T10:23:58.418Z,25.88
2017-07-05T10:24:58.057Z,26.09
2017-07-05T10:25:58.388Z,26.3
2017-07-05T10:26:58.394Z,26.32
2017-07-05T10:27:58.422Z,26.52
2017-07-05T10:28:58.401Z,26.69
2017-07-05T10:29:58.077Z,26.68
2017-07-05T10:30:58.411Z,26.68
2017-07-05T10:31:58.086Z,26.75
2017-07-05T10:32:58.424Z,26.67
2017-07-05T10:33:58.095Z,26.81
2017-07-05T10:34:58.758Z,26.91
2017-07-05T10:35:58.445Z,27
2017-07-05T10:36:58.106Z,27.26
2017-07-05T10:37:58.435Z,27.45
2017-07-05T10:38:58.112Z,27.66
2017-07-05T10:39:58.116Z,27.72
2017-07-05T10:40:58.490Z,27.8
2017-07-05T10:41:58.140Z,27.72
2017-07-05T10:42:58.459Z,27.9
2017-07-05T10:43:58.142Z,28.02
2017-07-05T10:44:58.476Z,28.06
2017-07-05T10:45:58.164Z,28.11
2017-07-05T10:46:58.146Z,28.16
2017-07-05T10:47:58.170Z,28.17
2017-07-05T10:48:58.833Z,28.14
2017-07-05T10:49:58.507Z,28.06
2017-07-05T10:50:58.189Z,27.98
2017-07-05T10:51:58.171Z,27.93
2017-07-05T10:52:58.503Z,27.79
2017-07-05T10:53:58.513Z,27.79
2017-07-05T10:54:58.522Z,27.83
2017-07-05T10:55:58.189Z,27.74
2017-07-05T10:56:58.524Z,27.62
2017-07-05T10:57:58.531Z,27.36
2017-07-05T10:58:58.534Z,27.33
2017-07-05T10:59:58.539Z,27.06
2017-07-05T11:00:58.543Z,26.76
2017-07-05T11:01:58.875Z,26.71
2017-07-05T11:02:58.221Z,26.57
2017-07-05T11:03:58.556Z,26.3
2017-07-05T11:04:58.233Z,26.15
2017-07-05T11:05:58.566Z,26.03
2017-07-05T11:06:58.246Z,25.93
2017-07-05T11:07:58.575Z,25.78
2017-07-05T11:08:58.250Z,25.74
2017-07-05T11:09:58.582Z,25.62
2017-07-05T11:10:58.259Z,25.62
2017-07-05T11:11:58.263Z,25.62
2017-07-05T11:12:58.934Z,25.49
2017-07-05T11:13:58.602Z,25.33
2017-07-05T11:14:58.298Z,25.27
2017-07-05T11:15:58.278Z,25.12
2017-07-05T11:16:58.280Z,24.97
2017-07-05T11:17:58.617Z,24.94
2017-07-05T11:18:58.290Z,24.97
2017-07-05T11:19:58.951Z,24.85
2017-07-05T11:20:58.640Z,24.87
2017-07-05T11:21:58.301Z,24.67
2017-07-05T11:22:58.321Z,24.61
2017-07-05T11:23:58.328Z,24.59
2017-07-05T11:24:58.311Z,24.45
2017-07-05T11:25:58.642Z,24.44
2017-07-05T11:26:58.319Z,24.32
2017-07-05T11:27:58.322Z,24.26
2017-07-05T11:28:58.688Z,24.17
2017-07-05T11:29:58.336Z,24
2017-07-05T11:30:58.663Z,23.9
2017-07-05T11:31:58.667Z,23.87
2017-07-05T11:32:58.668Z,23.92
2017-07-05T11:33:58.667Z,23.78
2017-07-05T11:34:58.688Z,23.82
2017-07-05T11:35:58.694Z,23.85
2017-07-05T11:36:58.682Z,23.97
2017-07-05T11:37:58.403Z,24.12
2017-07-05T11:38:58.402Z,24.17
2017-07-05T11:39:58.686Z,24.24
2017-07-05T11:40:58.697Z,24.22
2017-07-05T11:41:58.700Z,24.24
2017-07-05T11:42:59.028Z,24.27
2017-07-05T11:43:58.368Z,24.34
2017-07-05T11:44:58.698Z,24.36
2017-07-05T11:45:58.380Z,24.45
2017-07-05T11:46:58.371Z,24.46
2017-07-05T11:47:58.377Z,24.7
2017-07-05T11:48:58.711Z,24.69
2017-07-05T11:49:59.041Z,24.94
2017-07-05T11:50:58.386Z,24.94
2017-07-05T11:51:58.725Z,24.94
2017-07-05T11:52:59.047Z,25.02
2017-07-05T11:53:58.742Z,25.02
2017-07-05T11:54:58.723Z,25.04
2017-07-05T11:55:58.727Z,25.05
2017-07-05T11:56:58.753Z,25.05
2017-07-05T11:57:58.737Z,25.07
2017-07-05T11:58:58.409Z,25.02
2017-07-05T11:59:58.741Z,24.82
2017-07-05T12:00:58.413Z,24.82
2017-07-05T12:01:58.417Z,24.9
2017-07-05T12:02:58.761Z,24.86
2017-07-05T12:03:58.770Z,24.89
2017-07-05T12:04:59.102Z,24.86
2017-07-05T12:05:58.428Z,24.94
2017-07-05T12:06:58.443Z,25
2017-07-05T12:07:59.094Z,25.15
2017-07-05T12:08:58.437Z,25.26
2017-07-05T12:09:58.768Z,25.33
2017-07-05T12:10:58.772Z,25.37
2017-07-05T12:11:58.783Z,25.34
2017-07-05T12:12:58.778Z,25.27
2017-07-05T12:13:59.114Z,25.2
2017-07-05T12:14:58.458Z,25.07
2017-07-05T12:15:58.788Z,24.85
2017-07-05T12:16:58.792Z,24.42
2017-07-05T12:17:58.793Z,24.3
2017-07-05T12:18:58.831Z,24.08
2017-07-05T12:19:59.139Z,23.75
2017-07-05T12:20:58.835Z,23.5
2017-07-05T12:21:58.801Z,23.4
2017-07-05T12:22:58.808Z,23.26
2017-07-05T12:23:58.809Z,23.18
2017-07-05T12:24:58.844Z,23.24
2017-07-05T12:25:58.834Z,23.28
2017-07-05T12:26:58.488Z,23.28
2017-07-05T12:27:59.145Z,23.52
2017-07-05T12:28:58.493Z,23.78
2017-07-05T12:29:58.830Z,24
2017-07-05T12:30:58.826Z,24.07
2017-07-05T12:31:58.501Z,24.22
2017-07-05T12:32:58.503Z,24.26
2017-07-05T12:33:58.838Z,24.24
2017-07-05T12:34:58.866Z,24.26
2017-07-05T12:35:58.845Z,24.24
2017-07-05T12:36:58.539Z,24.18
2017-07-05T12:37:58.889Z,24.32
2017-07-05T12:38:58.519Z,24.29
2017-07-05T12:39:58.888Z,24.24
2017-07-05T12:40:58.560Z,24.19
2017-07-05T12:41:58.870Z,24.18
2017-07-05T12:42:58.875Z,24.14
2017-07-05T12:43:58.529Z,24.19
2017-07-05T12:44:58.542Z,24.32
2017-07-05T12:45:58.862Z,24.37
2017-07-05T12:46:59.205Z,24.51
2017-07-05T12:47:58.870Z,24.39
2017-07-05T12:48:58.541Z,24.49
2017-07-05T12:49:58.873Z,24.56
2017-07-05T12:50:58.928Z,24.71
2017-07-05T12:51:59.252Z,24.86
2017-07-05T12:52:58.565Z,24.9
2017-07-05T12:53:58.884Z,24.85
2017-07-05T12:54:58.562Z,24.93
2017-07-05T12:55:58.561Z,25